Time;durP1;ratioP1;P1;durP2;ratioP2;P2;SDS_P1;SDS_P2;PMS_P1;PMS_P2;Temp;Humidity;BMP_temperature;BMP_pressure;BME280_temperature;BME280_humidity;BME280_pressure;Samples;Min_cycle;Max_cycle;Signal;HPM_P1;HPM_P2
2024/04/08 00:04:01;;;;;;;3.53;1.40;;;;;13.30;100643.00;;;;10327612;28;20242;-79
2024/04/08 00:09:03;;;;;;;3.27;1.50;;;;;13.20;100683.00;;;;10310341;28;20219;-79
2024/04/08 00:14:04;;;;;;;3.83;1.03;;;;;13.10;100692.00;;;;10325818;28;20215;-78
2024/04/08 00:19:05;;;;;;;3.17;1.03;;;;;13.00;100666.00;;;;10329045;28;20258;-78
2024/04/08 00:24:06;;;;;;;4.33;1.87;;;;;13.00;100665.00;;;;10315706;28;20240;-78
2024/04/08 00:29:07;;;;;;;6.47;1.97;;;;;12.90;100655.00;;;;10317266;28;20298;-77
2024/04/08 00:34:08;;;;;;;5.40;2.10;;;;;12.90;100634.00;;;;10328360;28;20230;-78
2024/04/08 00:39:09;;;;;;;2.97;1.73;;;;;12.80;100640.00;;;;10333870;28;20231;-78
2024/04/08 00:44:10;;;;;;;4.87;1.80;;;;;12.80;100627.00;;;;10330030;28;20237;-78
2024/04/08 00:49:11;;;;;;;3.07;1.73;;;;;12.70;100639.00;;;;10329116;28;20269;-79
2024/04/08 00:54:12;;;;;;;5.00;1.90;;;;;12.70;100648.00;;;;10304076;28;20226;-77
2024/04/08 00:59:14;;;;;;;5.60;2.37;;;;;12.70;100650.00;;;;10309583;28;20223;-78
2024/04/08 01:04:15;;;;;;;3.23;1.97;;;;;12.70;100651.00;;;;10323013;28;20227;-83
2024/04/08 01:09:16;;;;;;;3.80;1.80;;;;;12.80;100637.00;;;;10338957;28;20228;-85
2024/04/08 01:14:17;;;;;;;5.13;2.23;;;;;12.80;100628.00;;;;10335697;28;20237;-83
2024/04/08 01:19:23;;;;;;;5.20;2.10;;;;;12.80;100593.00;;;;10365173;28;20239;-83
2024/04/08 01:24:24;;;;;;;5.37;2.50;;;;;12.80;100567.00;;;;10308473;28;21128;-83
2024/04/08 01:29:26;;;;;;;3.80;1.83;;;;;12.80;100556.00;;;;10318987;28;20221;-82
2024/04/08 01:34:27;;;;;;;5.47;2.40;;;;;12.70;100544.00;;;;10311523;28;20242;-83
2024/04/08 01:39:28;;;;;;;4.53;2.30;;;;;12.70;100530.00;;;;10323959;28;20261;-82
2024/04/08 01:44:28;;;;;;;8.47;2.93;;;;;12.70;100507.00;;;;10295033;28;20230;-82
2024/04/08 01:49:29;;;;;;;3.07;2.50;;;;;12.70;100498.00;;;;10331400;28;20287;-83
2024/04/08 01:54:30;;;;;;;5.77;2.60;;;;;12.60;100488.00;;;;10312455;28;20391;-82
2024/04/08 01:59:31;;;;;;;5.33;2.50;;;;;12.60;100502.00;;;;10298455;28;20270;-82
2024/04/08 02:04:32;;;;;;;3.60;2.53;;;;;12.60;100541.00;;;;10310395;28;20281;-81
2024/04/08 02:09:33;;;;;;;4.47;2.43;;;;;12.50;100529.00;;;;10295280;28;20223;-82
2024/04/08 02:14:34;;;;;;;5.20;2.33;;;;;12.50;100521.00;;;;10313496;28;20227;-82
2024/04/08 02:19:35;;;;;;;4.63;2.17;;;;;12.50;100518.00;;;;10310553;28;20262;-82
2024/04/08 02:24:36;;;;;;;5.10;2.40;;;;;12.50;100517.00;;;;10302831;28;20223;-86
2024/04/08 02:29:37;;;;;;;4.53;2.60;;;;;12.40;100511.00;;;;10312204;28;20306;-86
2024/04/08 02:34:37;;;;;;;3.77;2.47;;;;;12.40;100491.00;;;;10311805;28;20238;-78
2024/04/08 02:39:38;;;;;;;4.47;2.40;;;;;12.30;100485.00;;;;10305654;28;20232;-77
2024/04/08 02:44:39;;;;;;;3.57;2.50;;;;;12.30;100500.00;;;;10308055;28;20675;-78
2024/04/08 02:49:40;;;;;;;3.57;2.60;;;;;12.30;100493.00;;;;10297058;28;20243;-77
2024/04/08 02:54:41;;;;;;;5.43;2.83;;;;;12.30;100503.00;;;;10320046;28;20322;-78
2024/04/08 02:59:44;;;;;;;3.60;2.20;;;;;12.20;100482.00;;;;10293539;28;20257;-78
2024/04/08 03:04:45;;;;;;;2.47;2.07;;;;;12.20;100470.00;;;;10308067;28;20227;-78
2024/04/08 03:09:50;;;;;;;6.63;2.87;;;;;12.10;100460.00;;;;10314367;28;20622;-77
2024/04/08 03:14:51;;;;;;;5.70;2.70;;;;;12.00;100456.00;;;;10308915;28;20277;-76
2024/04/08 03:19:53;;;;;;;6.10;2.33;;;;;11.90;100437.00;;;;10295413;28;20931;-77
2024/04/08 03:24:55;;;;;;;4.67;2.20;;;;;11.80;100446.00;;;;10307193;28;20235;-77
2024/04/08 03:29:56;;;;;;;4.77;2.87;;;;;11.70;100437.00;;;;10312425;28;20223;-77
2024/04/08 03:34:57;;;;;;;3.67;2.47;;;;;11.60;100438.00;;;;10315889;28;20219;-77
2024/04/08 03:39:58;;;;;;;2.83;2.17;;;;;11.60;100431.00;;;;10329145;28;20220;-78
2024/04/08 03:44:59;;;;;;;4.30;2.33;;;;;11.50;100437.00;;;;10312715;28;20302;-80
2024/04/08 03:50:00;;;;;;;6.60;3.23;;;;;11.30;100452.00;;;;10330270;28;20219;-78
2024/04/08 03:55:01;;;;;;;5.03;3.40;;;;;11.30;100469.00;;;;10316789;28;20261;-78
2024/04/08 04:00:03;;;;;;;6.30;2.90;;;;;11.20;100468.00;;;;10320075;28;20224;-78
2024/04/08 04:05:05;;;;;;;7.60;3.10;;;;;11.20;100462.00;;;;10303010;28;20254;-79
2024/04/08 04:10:08;;;;;;;6.27;3.23;;;;;11.20;100476.00;;;;10332301;28;20231;-78
2024/04/08 04:15:11;;;;;;;7.47;3.63;;;;;11.10;100466.00;;;;10302131;28;20224;-78
2024/04/08 04:20:15;;;;;;;6.53;3.43;;;;;11.20;100480.00;;;;10297068;28;20223;-78
2024/04/08 04:25:17;;;;;;;5.00;3.63;;;;;11.40;100500.00;;;;10309718;28;20231;-78
2024/04/08 04:30:18;;;;;;;5.47;3.57;;;;;11.50;100496.00;;;;10315152;28;20219;-78
2024/04/08 04:35:19;;;;;;;6.57;3.30;;;;;11.60;100508.00;;;;10341338;28;20952;-79
2024/04/08 04:40:19;;;;;;;4.20;3.10;;;;;11.60;100507.00;;;;10303062;28;20223;-78
2024/04/08 04:45:21;;;;;;;6.43;3.50;;;;;11.70;100481.00;;;;10309689;28;20219;-79
2024/04/08 04:50:22;;;;;;;5.87;3.40;;;;;11.70;100441.00;;;;10294579;28;20231;-78
2024/04/08 04:55:23;;;;;;;4.13;3.03;;;;;11.70;100441.00;;;;10298724;28;20302;-81
2024/04/08 05:00:26;;;;;;;6.43;3.90;;;;;11.60;100447.00;;;;10312154;28;20221;-81
2024/04/08 05:05:27;;;;;;;5.77;4.13;;;;;11.50;100442.00;;;;10326386;28;20229;-81
2024/04/08 05:10:28;;;;;;;7.37;4.10;;;;;11.50;100484.00;;;;10292439;28;20694;-81
2024/04/08 05:15:29;;;;;;;7.33;4.67;;;;;11.40;100491.00;;;;10300385;28;20226;-81
2024/04/08 05:20:30;;;;;;;7.53;5.20;;;;;11.50;100493.00;;;;10301589;28;20226;-82
2024/04/08 05:25:31;;;;;;;9.77;5.17;;;;;11.50;100497.00;;;;10309379;28;20223;-81
2024/04/08 05:30:32;;;;;;;8.00;5.30;;;;;11.80;100485.00;;;;10310127;28;20227;-83
2024/04/08 05:35:33;;;;;;;7.43;5.00;;;;;11.80;100493.00;;;;10309261;28;20223;-82
2024/04/08 05:40:35;;;;;;;8.00;5.67;;;;;11.80;100491.00;;;;10307329;28;20258;-81
2024/04/08 05:45:36;;;;;;;5.70;4.97;;;;;11.80;100482.00;;;;10298960;28;20242;-81
2024/04/08 05:50:37;;;;;;;11.27;5.30;;;;;11.90;100480.00;;;;10309517;28;20836;-81
2024/04/08 05:55:38;;;;;;;8.90;5.07;;;;;11.90;100482.00;;;;10278740;28;20298;-82
2024/04/08 06:00:40;;;;;;;7.17;4.27;;;;;12.00;100485.00;;;;10311855;28;20722;-79
2024/04/08 06:05:41;;;;;;;7.43;4.80;;;;;12.20;100484.00;;;;10311388;28;20634;-78
2024/04/08 06:10:50;;;;;;;7.73;4.87;;;;;12.40;100484.00;;;;10306911;28;20232;-78
2024/04/08 06:15:51;;;;;;;9.93;5.00;;;;;12.70;100491.00;;;;10307292;28;20659;-78
2024/04/08 06:20:56;;;;;;;6.97;4.67;;;;;12.80;100488.00;;;;10312100;28;20223;-78
2024/04/08 06:26:01;;;;;;;6.63;3.90;;;;;12.80;100502.00;;;;10326242;28;20746;-78
2024/04/08 06:31:02;;;;;;;6.33;4.30;;;;;13.00;100496.00;;;;10322318;28;20215;-78
2024/04/08 06:36:03;;;;;;;6.30;4.43;;;;;13.20;100486.00;;;;10303263;28;20261;-78
2024/04/08 06:41:04;;;;;;;5.67;3.83;;;;;13.30;100484.00;;;;10295641;28;20219;-78
2024/04/08 06:46:05;;;;;;;5.70;4.17;;;;;13.60;100461.00;;;;10288010;28;20224;-77
2024/04/08 06:51:06;;;;;;;6.33;4.27;;;;;14.10;100452.00;;;;10324918;28;20227;-78
2024/04/08 06:56:08;;;;;;;5.33;4.30;;;;;14.40;100438.00;;;;10315150;28;20223;-78
2024/04/08 07:01:09;;;;;;;13.10;3.73;;;;;14.60;100450.00;;;;10309064;28;20219;-78
2024/04/08 07:06:10;;;;;;;8.23;3.87;;;;;14.60;100450.00;;;;10300581;28;20686;-77
2024/04/08 07:11:11;;;;;;;6.53;4.22;;;;;14.60;100454.00;;;;10315540;28;20226;-82
2024/04/08 07:16:12;;;;;;;6.57;4.07;;;;;14.80;100418.00;;;;10326540;28;20222;-82
2024/04/08 07:21:13;;;;;;;6.82;4.20;;;;;15.20;100424.00;;;;10330000;28;20284;-82
2024/04/08 07:26:14;;;;;;;6.97;3.90;;;;;15.90;100414.00;;;;10315910;28;20223;-82
2024/04/08 07:31:15;;;;;;;12.20;4.13;;;;;16.10;100417.00;;;;10314124;28;20691;-82
2024/04/08 07:36:16;;;;;;;6.70;3.33;;;;;16.40;100406.00;;;;10318349;28;20312;-82
2024/04/08 07:41:17;;;;;;;6.53;3.28;;;;;16.40;100403.00;;;;10321105;28;20219;-82
2024/04/08 07:46:18;;;;;;;4.70;2.88;;;;;16.40;100394.00;;;;10297672;28;20219;-82
2024/04/08 07:51:21;;;;;;;6.35;3.20;;;;;16.80;100385.00;;;;10301686;28;20227;-82
2024/04/08 07:56:22;;;;;;;5.18;2.95;;;;;17.20;100391.00;;;;10324331;28;20216;-84
2024/04/08 08:01:23;;;;;;;3.60;2.50;;;;;17.40;100392.00;;;;10319963;28;20592;-83
2024/04/08 08:06:24;;;;;;;4.85;2.95;;;;;17.80;100398.00;;;;10314779;28;20778;-82
2024/04/08 08:11:25;;;;;;;5.18;2.90;;;;;18.30;100427.00;;;;10333769;28;20334;-83
2024/04/08 08:16:29;;;;;;;5.40;2.47;;;;;18.50;100433.00;;;;10303044;28;20306;-83
2024/04/08 08:21:30;;;;;;;4.22;3.00;;;;;18.90;100420.00;;;;10328361;28;20286;-77
2024/04/08 08:26:34;;;;;;;6.88;2.65;;;;;19.00;100431.00;;;;10293596;28;20250;-77
2024/04/08 08:31:35;;;;;;;4.45;2.65;;;;;19.10;100415.00;;;;10295076;28;20277;-76
2024/04/08 08:36:36;;;;;;;4.90;2.20;;;;;19.80;100413.00;;;;10293486;28;20224;-78
2024/04/08 08:41:41;;;;;;;6.43;2.67;;;;;20.10;100387.00;;;;10288828;28;20278;-77
2024/04/08 08:46:42;;;;;;;4.90;2.97;;;;;21.20;100400.00;;;;10319764;28;20227;-76
2024/04/08 08:51:43;;;;;;;3.15;2.45;;;;;21.30;100410.00;;;;10312854;28;20234;-76
2024/04/08 08:56:44;;;;;;;5.07;2.60;;;;;21.40;100415.00;;;;10313539;28;20713;-77
2024/04/08 09:01:45;;;;;;;6.18;2.92;;;;;21.00;100421.00;;;;10293683;28;20279;-76
2024/04/08 09:06:56;;;;;;;5.40;2.88;;;;;20.10;100408.00;;;;10295175;28;20223;-77
2024/04/08 09:11:57;;;;;;;3.17;2.22;;;;;20.30;100385.00;;;;10314974;28;20611;-76
2024/04/08 09:17:08;;;;;;;3.95;1.90;;;;;20.80;100421.00;;;;10309943;28;20285;-77
2024/04/08 09:22:10;;;;;;;3.17;2.10;;;;;22.10;100403.00;;;;10308078;28;20281;-78
2024/04/08 09:27:11;;;;;;;3.90;2.10;;;;;22.60;100442.00;;;;10294942;28;20250;-77
2024/04/08 09:32:12;;;;;;;3.33;2.28;;;;;22.40;100452.00;;;;10300540;28;20234;-80
2024/04/08 09:37:14;;;;;;;2.33;2.13;;;;;22.10;100454.00;;;;10328297;28;20219;-78
2024/04/08 09:42:17;;;;;;;3.42;2.83;;;;;21.50;100454.00;;;;10288636;28;20230;-78
2024/04/08 09:47:18;;;;;;;3.97;3.10;;;;;21.10;100441.00;;;;10315410;28;20224;-78
2024/04/08 09:52:20;;;;;;;3.25;2.80;;;;;21.70;100433.00;;;;10315816;28;20875;-78
2024/04/08 09:57:27;;;;;;;3.20;2.65;;;;;21.60;100422.00;;;;10310989;28;20230;-78
2024/04/08 10:02:38;;;;;;;8.18;2.60;;;;;21.60;100419.00;;;;10329482;28;20211;-78
2024/04/08 10:07:40;;;;;;;2.92;2.38;;;;;21.50;100437.00;;;;10303642;28;20235;-78
2024/04/08 10:12:44;;;;;;;4.30;1.90;;;;;21.20;100421.00;;;;10310068;28;20227;-79
2024/04/08 10:17:51;;;;;;;3.47;1.90;;;;;20.90;100397.00;;;;10290660;28;20216;-78
2024/04/08 10:24:37;;;;;;;3.80;2.38;;;;;20.90;100362.00;;;;11372863;25;20434;-78
2024/04/08 10:29:43;;;;;;;3.45;2.05;;;;;21.70;100353.00;;;;11258126;26;20363;-79
2024/04/08 10:34:44;;;;;;;3.28;1.48;;;;;22.10;100349.00;;;;11244405;25;20258;-78
2024/04/08 10:39:46;;;;;;;3.38;1.83;;;;;21.50;100356.00;;;;11232886;25;20950;-78
2024/04/08 10:44:47;;;;;;;3.42;1.65;;;;;21.40;100317.00;;;;11256583;25;20584;-83
2024/04/08 10:49:49;;;;;;;3.72;1.40;;;;;21.50;100310.00;;;;11249040;25;20259;-82
2024/04/08 10:54:50;;;;;;;2.03;1.27;;;;;21.70;100306.00;;;;11301555;25;20257;-82
2024/04/08 10:59:52;;;;;;;1.30;1.10;;;;;21.30;100306.00;;;;11252400;25;20253;-82
2024/04/08 11:04:54;;;;;;;5.32;1.45;;;;;21.00;100316.00;;;;11299333;25;20369;-81
2024/04/08 11:09:55;;;;;;;2.47;1.23;;;;;20.40;100300.00;;;;11242348;25;20266;-81
2024/04/08 11:15:01;;;;;;;4.10;1.50;;;;;19.90;100294.00;;;;11290363;25;20251;-81
2024/04/08 11:20:05;;;;;;;2.00;1.40;;;;;20.00;100283.00;;;;11281894;25;20605;-82
2024/04/08 11:25:15;;;;;;;3.50;1.52;;;;;20.00;100294.00;;;;11214283;26;20914;-81
2024/04/08 11:30:17;;;;;;;2.33;1.50;;;;;20.00;100288.00;;;;11193000;26;20254;-81
2024/04/08 11:35:19;;;;;;;3.85;1.27;;;;;19.90;100295.00;;;;11182651;26;20267;-81
2024/04/08 11:40:20;;;;;;;2.67;1.27;;;;;20.00;100282.00;;;;11258410;26;20258;-81
2024/04/08 11:45:22;;;;;;;2.15;0.90;;;;;20.20;100278.00;;;;11265598;25;21100;-81
2024/04/08 11:50:24;;;;;;;2.75;1.10;;;;;20.60;100262.00;;;;11236585;26;20250;-80
2024/04/08 11:55:26;;;;;;;1.20;0.98;;;;;20.90;100241.00;;;;11245184;26;20753;-85
2024/04/08 12:00:27;;;;;;;2.67;1.00;;;;;20.90;100258.00;;;;11246369;26;20339;-86
2024/04/08 12:05:29;;;;;;;3.20;0.93;;;;;20.80;100237.00;;;;11261742;25;20281;-85
2024/04/08 12:10:30;;;;;;;1.83;1.08;;;;;21.20;100226.00;;;;11222544;26;20703;-84
2024/04/08 12:15:32;;;;;;;2.65;1.00;;;;;22.30;100212.00;;;;11258106;25;20259;-85
2024/04/08 12:20:33;;;;;;;2.72;0.73;;;;;23.50;100213.00;;;;11267292;26;20380;-84
2024/04/08 12:25:35;;;;;;;4.05;1.10;;;;;22.70;100206.00;;;;11271626;26;20311;-85
2024/04/08 12:30:41;;;;;;;2.58;1.35;;;;;22.70;100218.00;;;;11248383;26;20250;-86
2024/04/08 12:35:43;;;;;;;5.95;1.63;;;;;22.80;100204.00;;;;11210016;26;20285;-86
2024/04/08 12:40:44;;;;;;;3.42;1.67;;;;;24.00;100200.00;;;;11259527;26;20256;-85
2024/04/08 12:45:45;;;;;;;2.80;1.80;;;;;24.00;100190.00;;;;11254453;26;20616;-84
2024/04/08 12:50:47;;;;;;;4.70;1.50;;;;;23.60;100197.00;;;;11219686;26;20254;-87
2024/04/08 12:55:50;;;;;;;3.47;1.40;;;;;24.50;100173.00;;;;11216754;26;20258;-87
2024/04/08 13:00:52;;;;;;;7.43;1.65;;;;;24.50;100184.00;;;;11224030;25;20258;-85
2024/04/08 13:05:53;;;;;;;6.97;2.35;;;;;25.10;100185.00;;;;11120442;26;20306;-85
2024/04/08 13:10:55;;;;;;;4.68;1.42;;;;;23.60;100170.00;;;;11239886;26;20285;-87
2024/04/08 13:15:56;;;;;;;5.40;2.00;;;;;22.70;100162.00;;;;11270025;26;20270;-86
2024/04/08 13:20:57;;;;;;;4.18;1.80;;;;;24.30;100142.00;;;;11259271;26;20293;-85
2024/04/08 13:25:59;;;;;;;6.78;2.25;;;;;23.10;100140.00;;;;11227540;26;20285;-86
2024/04/08 13:31:01;;;;;;;7.93;2.15;;;;;24.10;100128.00;;;;11255425;26;20585;-85
2024/04/08 13:36:09;;;;;;;9.10;2.45;;;;;23.50;100106.00;;;;11203311;26;20246;-86
2024/04/08 13:41:11;;;;;;;4.45;1.73;;;;;24.00;100086.00;;;;11209813;26;20254;-85
2024/04/08 13:46:12;;;;;;;8.10;2.22;;;;;23.40;100066.00;;;;11256850;25;20294;-87
2024/04/08 13:51:14;;;;;;;5.00;1.83;;;;;23.40;100064.00;;;;11250084;25;20255;-86
2024/04/08 13:56:15;;;;;;;4.88;1.60;;;;;23.50;100052.00;;;;11224972;25;20249;-87
2024/04/08 14:01:17;;;;;;;4.88;2.00;;;;;24.00;100053.00;;;;11166693;26;20922;-86
2024/04/08 14:06:19;;;;;;;6.18;2.55;;;;;24.10;100041.00;;;;11220604;26;20305;-86
2024/04/08 14:11:20;;;;;;;3.53;1.95;;;;;23.30;100032.00;;;;11222695;26;20266;-86
2024/04/08 14:16:24;;;;;;;12.82;2.70;;;;;24.00;100025.00;;;;11201277;26;20291;-86
2024/04/08 14:21:27;;;;;;;5.50;1.83;;;;;23.60;99998.00;;;;11149908;26;20255;-86
2024/04/08 14:26:29;;;;;;;6.85;2.75;;;;;23.50;99985.00;;;;11266635;26;20262;-86
2024/04/08 14:31:31;;;;;;;6.78;2.15;;;;;23.60;99959.00;;;;11233777;26;20274;-85
2024/04/08 14:36:32;;;;;;;6.95;2.20;;;;;23.80;99953.00;;;;11264914;26;20310;-86
2024/04/08 14:41:34;;;;;;;5.85;2.38;;;;;24.00;99935.00;;;;11247723;26;20298;-85
2024/04/08 14:46:35;;;;;;;8.00;2.40;;;;;24.10;99927.00;;;;11259598;26;20255;-87
2024/04/08 14:51:37;;;;;;;12.13;2.92;;;;;24.10;99921.00;;;;11184633;26;20251;-86
2024/04/08 14:56:43;;;;;;;8.55;3.03;;;;;23.90;99910.00;;;;11248345;25;20313;-85
2024/04/08 15:01:45;;;;;;;12.43;3.38;;;;;24.10;99904.00;;;;11212744;26;20247;-85
2024/04/08 15:06:46;;;;;;;12.05;2.85;;;;;23.50;99898.00;;;;11232033;26;20325;-86
2024/04/08 15:11:47;;;;;;;10.63;2.92;;;;;23.30;99888.00;;;;11260718;26;20353;-87
2024/04/08 15:16:49;;;;;;;10.45;2.75;;;;;22.80;99881.00;;;;11206841;25;20278;-86
2024/04/08 15:21:51;;;;;;;13.35;3.13;;;;;23.30;99879.00;;;;11239105;26;20242;-82
2024/04/08 15:26:52;;;;;;;9.93;3.28;;;;;22.60;99869.00;;;;11241624;26;20286;-80
2024/04/08 15:31:54;;;;;;;8.98;2.50;;;;;22.20;99871.00;;;;11245358;26;20289;-82
2024/04/08 15:36:55;;;;;;;14.60;2.88;;;;;22.20;99863.00;;;;11224788;26;20254;-81
2024/04/08 15:41:56;;;;;;;10.77;2.80;;;;;22.00;99847.00;;;;11263420;26;20286;-81
2024/04/08 15:46:58;;;;;;;10.50;3.17;;;;;22.00;99848.00;;;;11228400;26;20281;-81
2024/04/08 15:51:59;;;;;;;13.23;3.00;;;;;21.90;99833.00;;;;11168117;26;20259;-82
2024/04/08 15:57:03;;;;;;;11.27;3.55;;;;;21.80;99822.00;;;;11222706;26;20259;-83
2024/04/08 16:02:05;;;;;;;10.27;2.60;;;;;21.90;99819.00;;;;11269042;25;20285;-82
2024/04/08 16:07:07;;;;;;;13.88;2.88;;;;;22.10;99811.00;;;;11260134;26;20251;-82
2024/04/08 16:12:08;;;;;;;10.32;2.53;;;;;22.00;99820.00;;;;11276581;25;20251;-81
2024/04/08 16:17:10;;;;;;;13.48;3.35;;;;;21.90;99808.00;;;;11258284;26;20259;-81
2024/04/08 16:22:15;;;;;;;11.40;3.28;;;;;21.80;99812.00;;;;11243866;26;20251;-81
2024/04/08 16:27:16;;;;;;;9.98;2.88;;;;;21.80;99808.00;;;;11233106;25;20693;-81
2024/04/08 16:32:21;;;;;;;13.27;3.15;;;;;21.70;99819.00;;;;11236881;26;20273;-79
2024/04/08 16:37:22;;;;;;;8.98;2.75;;;;;22.00;99817.00;;;;11238150;25;20290;-79
2024/04/08 16:42:24;;;;;;;12.82;2.97;;;;;22.20;99803.00;;;;11190270;26;20267;-79
2024/04/08 16:47:25;;;;;;;16.92;3.85;;;;;22.20;99803.00;;;;11189017;26;20665;-79
2024/04/08 16:52:26;;;;;;;25.10;4.10;;;;;22.00;99809.00;;;;11168012;26;20259;-79
2024/04/08 16:57:28;;;;;;;14.18;3.65;;;;;22.00;99791.00;;;;11158539;26;20289;-79
2024/04/08 17:02:29;;;;;;;16.10;3.58;;;;;21.90;99784.00;;;;11163569;26;20247;-79
2024/04/08 17:07:33;;;;;;;18.58;4.18;;;;;21.80;99783.00;;;;11244267;26;20359;-79
2024/04/08 17:12:36;;;;;;;17.58;3.72;;;;;21.70;99770.00;;;;11190511;26;20266;-79
2024/04/08 17:17:38;;;;;;;15.95;4.25;;;;;21.60;99766.00;;;;11206395;26;20259;-79
2024/04/08 17:22:40;;;;;;;19.10;4.60;;;;;21.40;99766.00;;;;11267534;26;20258;-79
2024/04/08 17:27:42;;;;;;;14.85;4.13;;;;;21.40;99757.00;;;;11254843;25;20314;-79
2024/04/08 17:32:43;;;;;;;15.45;4.20;;;;;21.30;99753.00;;;;11253884;25;21034;-79
2024/04/08 17:37:45;;;;;;;18.00;4.68;;;;;21.10;99756.00;;;;11250308;25;21133;-79
2024/04/08 17:42:46;;;;;;;21.50;4.05;;;;;21.00;99751.00;;;;11244811;25;20258;-81
2024/04/08 17:47:48;;;;;;;22.23;3.65;;;;;20.90;99756.00;;;;11244153;26;20258;-81
2024/04/08 17:52:51;;;;;;;18.50;4.47;;;;;20.90;99742.00;;;;11233525;26;20274;-83
2024/04/08 17:57:56;;;;;;;24.98;4.32;;;;;20.80;99755.00;;;;11159396;26;20297;-82
2024/04/08 18:02:57;;;;;;;13.95;3.85;;;;;20.80;99740.00;;;;11183564;26;21228;-81
2024/04/08 18:07:59;;;;;;;17.85;4.03;;;;;20.60;99737.00;;;;11224117;26;20365;-81
2024/04/08 18:13:01;;;;;;;14.50;3.97;;;;;20.40;99740.00;;;;11231474;26;20764;-82
2024/04/08 18:18:02;;;;;;;13.90;3.83;;;;;20.10;99735.00;;;;11198421;26;20259;-81
2024/04/08 18:23:04;;;;;;;17.92;4.00;;;;;20.00;99739.00;;;;11215871;26;20262;-81
2024/04/08 18:28:05;;;;;;;15.45;4.07;;;;;19.80;99744.00;;;;11245967;26;20349;-81
2024/04/08 18:33:08;;;;;;;19.17;4.88;;;;;19.60;99733.00;;;;11225512;25;20257;-82
2024/04/08 18:38:10;;;;;;;16.02;3.80;;;;;19.40;99723.00;;;;11248645;26;20289;-81
2024/04/08 18:43:11;;;;;;;18.05;4.60;;;;;19.20;99720.00;;;;11209484;26;20291;-81
2024/04/08 18:48:13;;;;;;;14.35;3.88;;;;;19.00;99720.00;;;;11256139;26;20255;-81
2024/04/08 18:53:14;;;;;;;15.95;4.03;;;;;18.90;99714.00;;;;11259547;25;20297;-79
2024/04/08 18:58:16;;;;;;;16.50;4.20;;;;;18.80;99717.00;;;;11268608;25;20347;-78
2024/04/08 19:03:17;;;;;;;14.25;4.72;;;;;18.50;99721.00;;;;11199167;26;20826;-79
2024/04/08 19:08:19;;;;;;;17.60;3.60;;;;;18.30;99720.00;;;;11180704;26;20271;-79
2024/04/08 19:13:21;;;;;;;17.80;3.50;;;;;18.10;99706.00;;;;11170480;26;20247;-79
2024/04/08 19:18:23;;;;;;;20.08;3.95;;;;;17.90;99719.00;;;;11180779;26;20289;-78
2024/04/08 19:23:24;;;;;;;13.02;3.35;;;;;17.70;99723.00;;;;11207105;26;20354;-79
2024/04/08 19:28:29;;;;;;;19.13;4.57;;;;;17.50;99734.00;;;;11268958;25;20298;-79
2024/04/08 19:33:30;;;;;;;21.55;4.18;;;;;17.30;99737.00;;;;11200030;26;20259;-78
2024/04/08 19:38:32;;;;;;;13.00;4.15;;;;;17.20;99723.00;;;;11254158;25;20271;-79
2024/04/08 19:43:34;;;;;;;23.48;8.38;;;;;17.10;99710.00;;;;11253625;26;20601;-79
2024/04/08 19:48:35;;;;;;;27.80;9.75;;;;;17.00;99710.00;;;;11270766;25;20257;-79
2024/04/08 19:53:38;;;;;;;14.93;5.15;;;;;17.00;99706.00;;;;11212889;26;20251;-78
2024/04/08 19:58:40;;;;;;;17.90;5.20;;;;;16.80;99694.00;;;;11222294;26;20247;-78
2024/04/08 20:03:42;;;;;;;12.02;3.88;;;;;16.70;99692.00;;;;11212782;26;20260;-79
2024/04/08 20:08:44;;;;;;;13.10;4.38;;;;;16.60;99700.00;;;;11269990;25;20250;-78
2024/04/08 20:13:46;;;;;;;22.52;5.30;;;;;16.50;99701.00;;;;11253499;26;20289;-78
2024/04/08 20:18:51;;;;;;;17.23;4.43;;;;;16.40;99711.00;;;;11223326;26;20289;-79
2024/04/08 20:23:53;;;;;;;20.35;5.78;;;;;16.30;99704.00;;;;11234213;25;20809;-79
2024/04/08 20:28:54;;;;;;;18.40;5.03;;;;;16.20;99693.00;;;;11240582;26;20254;-78
2024/04/08 20:33:56;;;;;;;13.50;5.13;;;;;16.10;99679.00;;;;11268970;25;20300;-79
2024/04/08 20:38:58;;;;;;;17.85;5.32;;;;;16.00;99662.00;;;;11261650;25;20313;-79
2024/04/08 20:44:00;;;;;;;19.75;5.57;;;;;16.10;99663.00;;;;11212925;26;20263;-79
2024/04/08 20:49:02;;;;;;;22.23;5.28;;;;;16.20;99648.00;;;;11243871;26;20294;-78
2024/04/08 20:54:04;;;;;;;16.45;5.68;;;;;16.30;99659.00;;;;11195651;26;20262;-79
2024/04/08 20:59:05;;;;;;;19.45;4.55;;;;;16.20;99653.00;;;;11262311;25;20247;-78
2024/04/08 21:04:07;;;;;;;16.40;4.10;;;;;16.20;99670.00;;;;11241558;25;20318;-79
2024/04/08 21:09:08;;;;;;;17.63;5.15;;;;;16.20;99668.00;;;;11222206;26;20344;-78
2024/04/08 21:14:10;;;;;;;14.52;4.40;;;;;16.20;99689.00;;;;11209004;26;20938;-78
2024/04/08 21:19:13;;;;;;;18.05;4.35;;;;;16.20;99740.00;;;;11257606;25;20302;-78
2024/04/08 21:24:15;;;;;;;24.98;8.50;;;;;16.30;99787.00;;;;11266128;25;20273;-79
2024/04/08 21:29:16;;;;;;;11.77;3.83;;;;;16.60;99846.00;;;;11249825;25;20285;-78
2024/04/08 21:34:17;;;;;;;4.55;1.30;;;;;16.80;99854.00;;;;11251946;26;20368;-78
2024/04/08 21:39:19;;;;;;;2.33;1.10;;;;;16.70;99859.00;;;;11212674;26;20255;-79
2024/04/08 21:44:21;;;;;;;0.77;0.50;;;;;16.60;99850.00;;;;11241997;26;21540;-78
2024/04/08 21:49:22;;;;;;;1.13;0.55;;;;;16.40;99835.00;;;;11249087;26;20828;-77
2024/04/08 21:54:24;;;;;;;4.10;0.65;;;;;16.40;99838.00;;;;11222636;26;20372;-78
2024/04/08 21:59:26;;;;;;;3.97;1.00;;;;;16.30;99843.00;;;;11212305;26;20265;-78
2024/04/08 22:04:27;;;;;;;3.00;0.88;;;;;15.80;99788.00;;;;11222102;26;20694;-79
2024/04/08 22:09:29;;;;;;;2.55;1.10;;;;;15.10;99802.00;;;;11254698;25;20838;-80
2024/04/08 22:14:30;;;;;;;2.30;0.70;;;;;14.70;99826.00;;;;11260813;25;20381;-79
2024/04/08 22:19:32;;;;;;;2.25;0.95;;;;;14.50;99849.00;;;;11206960;26;20258;-79
2024/04/08 22:24:33;;;;;;;2.13;0.80;;;;;14.40;99828.00;;;;11230350;26;20361;-79
2024/04/08 22:29:35;;;;;;;5.70;0.98;;;;;14.30;99801.00;;;;11195674;26;20254;-80
2024/04/08 22:34:36;;;;;;;4.73;0.97;;;;;14.20;99822.00;;;;11230994;26;20766;-80
2024/04/08 22:39:37;;;;;;;5.40;1.10;;;;;14.10;99801.00;;;;11194967;26;20246;-80
2024/04/08 22:44:42;;;;;;;1.70;0.90;;;;;14.10;99789.00;;;;11188091;26;20252;-79
2024/04/08 22:49:44;;;;;;;5.03;1.47;;;;;14.10;99781.00;;;;11261151;26;20255;-79
2024/04/08 22:54:45;;;;;;;5.57;1.40;;;;;14.10;99774.00;;;;11198021;26;20887;-79
2024/04/08 22:59:47;;;;;;;3.45;1.10;;;;;14.10;99762.00;;;;11230502;26;20243;-79
2024/04/08 23:04:48;;;;;;;4.67;1.90;;;;;14.10;99836.00;;;;11211747;26;20246;-80
2024/04/08 23:09:50;;;;;;;5.80;1.47;;;;;14.10;99848.00;;;;11215365;26;20298;-79
2024/04/08 23:14:51;;;;;;;6.15;1.67;;;;;14.20;99845.00;;;;11251386;26;20251;-80
2024/04/08 23:19:52;;;;;;;5.90;2.00;;;;;14.30;99835.00;;;;11252775;25;20585;-80
2024/04/08 23:24:54;;;;;;;6.00;1.83;;;;;14.30;99789.00;;;;11233132;26;20276;-81
2024/04/08 23:29:56;;;;;;;5.53;2.00;;;;;14.30;99750.00;;;;11261022;25;20285;-82
2024/04/08 23:34:57;;;;;;;7.43;2.03;;;;;14.20;99739.00;;;;11252631;25;20350;-81
2024/04/08 23:39:59;;;;;;;6.60;1.60;;;;;14.20;99751.00;;;;11242314;26;20301;-83
2024/04/08 23:45:01;;;;;;;5.63;1.70;;;;;14.20;99742.00;;;;11260725;25;20341;-82
2024/04/08 23:50:03;;;;;;;6.33;2.17;;;;;14.10;99758.00;;;;11252208;26;21097;-80
2024/04/08 23:55:05;;;;;;;7.75;2.22;;;;;14.10;99788.00;;;;11231757;25;20251;-82
